sensor_id;sensor_type;location;lat;lon;timestamp;P1;durP1;ratioP1;P2;durP2;ratioP2
85342;SDS011;75760;31.390;34.904;2024-02-26T00:01:49;51.38;;;26.88;;
85342;SDS011;75760;31.390;34.904;2024-02-26T00:04:15;47.97;;;26.63;;
85342;SDS011;75760;31.390;34.904;2024-02-26T00:06:40;49.87;;;28.13;;
85342;SDS011;75760;31.390;34.904;2024-02-26T00:09:06;52.10;;;28.33;;
85342;SDS011;75760;31.390;34.904;2024-02-26T00:11:33;68.03;;;41.10;;
85342;SDS011;75760;31.390;34.904;2024-02-26T00:13:58;73.22;;;44.15;;
85342;SDS011;75760;31.390;34.904;2024-02-26T00:16:24;62.70;;;34.37;;
85342;SDS011;75760;31.390;34.904;2024-02-26T00:18:50;50.38;;;28.70;;
85342;SDS011;75760;31.390;34.904;2024-02-26T00:21:15;45.83;;;26.93;;
85342;SDS011;75760;31.390;34.904;2024-02-26T00:23:41;50.28;;;27.05;;
85342;SDS011;75760;31.390;34.904;2024-02-26T00:26:07;51.53;;;26.40;;
85342;SDS011;75760;31.390;34.904;2024-02-26T00:28:33;50.95;;;27.77;;
85342;SDS011;75760;31.390;34.904;2024-02-26T00:30:58;45.47;;;25.70;;
85342;SDS011;75760;31.390;34.904;2024-02-26T00:33:24;46.87;;;26.50;;
85342;SDS011;75760;31.390;34.904;2024-02-26T00:35:50;47.78;;;28.13;;
85342;SDS011;75760;31.390;34.904;2024-02-26T00:38:15;45.30;;;26.43;;
85342;SDS011;75760;31.390;34.904;2024-02-26T00:40:41;46.97;;;26.17;;
85342;SDS011;75760;31.390;34.904;2024-02-26T00:43:07;51.97;;;27.27;;
85342;SDS011;75760;31.390;34.904;2024-02-26T00:45:32;45.28;;;26.08;;
85342;SDS011;75760;31.390;34.904;2024-02-26T00:47:58;45.47;;;26.07;;
85342;SDS011;75760;31.390;34.904;2024-02-26T00:50:26;48.45;;;25.38;;
85342;SDS011;75760;31.390;34.904;2024-02-26T00:52:52;49.73;;;26.03;;
85342;SDS011;75760;31.390;34.904;2024-02-26T00:55:18;50.22;;;26.17;;
85342;SDS011;75760;31.390;34.904;2024-02-26T00:57:43;45.17;;;25.63;;
85342;SDS011;75760;31.390;34.904;2024-02-26T01:00:09;42.57;;;24.93;;
85342;SDS011;75760;31.390;34.904;2024-02-26T01:02:35;42.97;;;25.20;;
85342;SDS011;75760;31.390;34.904;2024-02-26T01:05:01;44.33;;;24.97;;
85342;SDS011;75760;31.390;34.904;2024-02-26T01:07:26;42.58;;;23.60;;
85342;SDS011;75760;31.390;34.904;2024-02-26T01:09:52;41.43;;;23.57;;
85342;SDS011;75760;31.390;34.904;2024-02-26T01:12:17;46.00;;;26.00;;
85342;SDS011;75760;31.390;34.904;2024-02-26T01:14:43;43.90;;;24.58;;
85342;SDS011;75760;31.390;34.904;2024-02-26T01:17:08;47.67;;;24.63;;
85342;SDS011;75760;31.390;34.904;2024-02-26T01:19:34;43.75;;;25.55;;
85342;SDS011;75760;31.390;34.904;2024-02-26T01:21:59;45.23;;;24.10;;
85342;SDS011;75760;31.390;34.904;2024-02-26T01:24:25;44.60;;;25.43;;
85342;SDS011;75760;31.390;34.904;2024-02-26T01:26:51;45.60;;;25.42;;
85342;SDS011;75760;31.390;34.904;2024-02-26T01:29:16;46.57;;;25.87;;
85342;SDS011;75760;31.390;34.904;2024-02-26T01:31:42;45.13;;;25.23;;
85342;SDS011;75760;31.390;34.904;2024-02-26T01:34:07;51.00;;;27.63;;
85342;SDS011;75760;31.390;34.904;2024-02-26T01:36:33;52.08;;;27.65;;
85342;SDS011;75760;31.390;34.904;2024-02-26T01:38:59;48.07;;;26.63;;
85342;SDS011;75760;31.390;34.904;2024-02-26T01:41:25;43.90;;;24.35;;
85342;SDS011;75760;31.390;34.904;2024-02-26T01:43:50;45.87;;;24.80;;
85342;SDS011;75760;31.390;34.904;2024-02-26T01:46:16;44.20;;;23.80;;
85342;SDS011;75760;31.390;34.904;2024-02-26T01:48:43;41.38;;;23.33;;
85342;SDS011;75760;31.390;34.904;2024-02-26T01:51:12;44.10;;;24.73;;
85342;SDS011;75760;31.390;34.904;2024-02-26T01:53:40;41.10;;;23.05;;
85342;SDS011;75760;31.390;34.904;2024-02-26T01:56:06;42.90;;;24.55;;
85342;SDS011;75760;31.390;34.904;2024-02-26T01:58:33;46.42;;;24.73;;
85342;SDS011;75760;31.390;34.904;2024-02-26T02:01:00;41.00;;;23.95;;
85342;SDS011;75760;31.390;34.904;2024-02-26T02:03:27;39.93;;;24.33;;
85342;SDS011;75760;31.390;34.904;2024-02-26T02:05:54;41.72;;;23.55;;
85342;SDS011;75760;31.390;34.904;2024-02-26T02:08:20;41.42;;;23.17;;
85342;SDS011;75760;31.390;34.904;2024-02-26T02:10:46;44.10;;;25.37;;
85342;SDS011;75760;31.390;34.904;2024-02-26T02:13:14;45.80;;;26.20;;
85342;SDS011;75760;31.390;34.904;2024-02-26T02:15:39;42.25;;;22.98;;
85342;SDS011;75760;31.390;34.904;2024-02-26T02:18:05;43.23;;;23.93;;
85342;SDS011;75760;31.390;34.904;2024-02-26T02:20:32;40.42;;;23.42;;
85342;SDS011;75760;31.390;34.904;2024-02-26T02:22:59;39.80;;;23.52;;
85342;SDS011;75760;31.390;34.904;2024-02-26T02:25:24;41.33;;;22.33;;
85342;SDS011;75760;31.390;34.904;2024-02-26T02:27:50;40.85;;;22.90;;
85342;SDS011;75760;31.390;34.904;2024-02-26T02:30:18;39.97;;;23.75;;
85342;SDS011;75760;31.390;34.904;2024-02-26T02:32:45;42.72;;;23.92;;
85342;SDS011;75760;31.390;34.904;2024-02-26T02:35:11;42.60;;;25.37;;
85342;SDS011;75760;31.390;34.904;2024-02-26T02:37:37;41.80;;;23.92;;
85342;SDS011;75760;31.390;34.904;2024-02-26T02:40:03;44.40;;;26.97;;
85342;SDS011;75760;31.390;34.904;2024-02-26T02:42:30;40.78;;;24.40;;
85342;SDS011;75760;31.390;34.904;2024-02-26T02:44:55;41.90;;;23.88;;
85342;SDS011;75760;31.390;34.904;2024-02-26T02:47:21;44.50;;;24.10;;
85342;SDS011;75760;31.390;34.904;2024-02-26T02:49:47;41.80;;;22.70;;
85342;SDS011;75760;31.390;34.904;2024-02-26T02:52:12;44.35;;;23.55;;
85342;SDS011;75760;31.390;34.904;2024-02-26T02:54:38;45.57;;;23.10;;
85342;SDS011;75760;31.390;34.904;2024-02-26T02:57:06;40.90;;;23.58;;
85342;SDS011;75760;31.390;34.904;2024-02-26T02:59:32;52.70;;;23.70;;
85342;SDS011;75760;31.390;34.904;2024-02-26T03:01:58;42.57;;;22.83;;
85342;SDS011;75760;31.390;34.904;2024-02-26T03:04:23;38.92;;;21.92;;
85342;SDS011;75760;31.390;34.904;2024-02-26T03:06:49;41.57;;;22.63;;
85342;SDS011;75760;31.390;34.904;2024-02-26T03:09:14;35.92;;;21.98;;
85342;SDS011;75760;31.390;34.904;2024-02-26T03:11:40;39.80;;;21.43;;
85342;SDS011;75760;31.390;34.904;2024-02-26T03:14:05;38.93;;;21.63;;
85342;SDS011;75760;31.390;34.904;2024-02-26T03:16:31;35.95;;;21.02;;
85342;SDS011;75760;31.390;34.904;2024-02-26T03:18:57;37.97;;;21.77;;
85342;SDS011;75760;31.390;34.904;2024-02-26T03:21:24;38.40;;;21.23;;
85342;SDS011;75760;31.390;34.904;2024-02-26T03:23:50;37.90;;;22.65;;
85342;SDS011;75760;31.390;34.904;2024-02-26T03:26:16;37.93;;;20.70;;
85342;SDS011;75760;31.390;34.904;2024-02-26T03:28:42;35.45;;;20.92;;
85342;SDS011;75760;31.390;34.904;2024-02-26T03:31:07;32.17;;;19.07;;
85342;SDS011;75760;31.390;34.904;2024-02-26T03:33:33;36.92;;;20.67;;
85342;SDS011;75760;31.390;34.904;2024-02-26T03:35:59;36.95;;;19.55;;
85342;SDS011;75760;31.390;34.904;2024-02-26T03:38:25;31.70;;;18.93;;
85342;SDS011;75760;31.390;34.904;2024-02-26T03:40:51;29.90;;;18.35;;
85342;SDS011;75760;31.390;34.904;2024-02-26T03:43:16;33.97;;;19.57;;
85342;SDS011;75760;31.390;34.904;2024-02-26T03:45:42;33.95;;;19.77;;
85342;SDS011;75760;31.390;34.904;2024-02-26T03:48:08;34.13;;;19.00;;
85342;SDS011;75760;31.390;34.904;2024-02-26T03:50:33;31.60;;;17.80;;
85342;SDS011;75760;31.390;34.904;2024-02-26T03:52:59;33.25;;;19.08;;
85342;SDS011;75760;31.390;34.904;2024-02-26T03:55:25;31.03;;;18.27;;
85342;SDS011;75760;31.390;34.904;2024-02-26T03:57:54;29.57;;;17.77;;
85342;SDS011;75760;31.390;34.904;2024-02-26T04:00:19;31.00;;;18.65;;
85342;SDS011;75760;31.390;34.904;2024-02-26T04:02:48;32.25;;;18.52;;
85342;SDS011;75760;31.390;34.904;2024-02-26T04:05:14;32.28;;;17.63;;
85342;SDS011;75760;31.390;34.904;2024-02-26T04:07:40;31.00;;;17.43;;
85342;SDS011;75760;31.390;34.904;2024-02-26T04:10:12;29.17;;;17.80;;
85342;SDS011;75760;31.390;34.904;2024-02-26T04:12:41;28.10;;;17.92;;
85342;SDS011;75760;31.390;34.904;2024-02-26T04:15:08;29.65;;;17.25;;
85342;SDS011;75760;31.390;34.904;2024-02-26T04:17:34;26.23;;;16.30;;
85342;SDS011;75760;31.390;34.904;2024-02-26T04:20:01;28.33;;;15.50;;
85342;SDS011;75760;31.390;34.904;2024-02-26T04:22:27;27.58;;;15.52;;
85342;SDS011;75760;31.390;34.904;2024-02-26T04:24:52;31.33;;;17.02;;
85342;SDS011;75760;31.390;34.904;2024-02-26T04:27:18;26.07;;;15.90;;
85342;SDS011;75760;31.390;34.904;2024-02-26T04:29:43;25.07;;;14.70;;
85342;SDS011;75760;31.390;34.904;2024-02-26T04:32:09;29.85;;;15.02;;
85342;SDS011;75760;31.390;34.904;2024-02-26T04:34:35;26.97;;;15.53;;
85342;SDS011;75760;31.390;34.904;2024-02-26T04:37:00;28.45;;;15.32;;
85342;SDS011;75760;31.390;34.904;2024-02-26T04:39:26;28.47;;;15.90;;
85342;SDS011;75760;31.390;34.904;2024-02-26T04:41:51;25.93;;;15.87;;
85342;SDS011;75760;31.390;34.904;2024-02-26T04:44:17;25.25;;;15.00;;
85342;SDS011;75760;31.390;34.904;2024-02-26T04:46:42;29.37;;;16.27;;
85342;SDS011;75760;31.390;34.904;2024-02-26T04:49:08;29.00;;;16.67;;
85342;SDS011;75760;31.390;34.904;2024-02-26T04:51:34;26.97;;;16.23;;
85342;SDS011;75760;31.390;34.904;2024-02-26T04:53:59;26.27;;;15.57;;
85342;SDS011;75760;31.390;34.904;2024-02-26T04:56:25;24.83;;;14.97;;
85342;SDS011;75760;31.390;34.904;2024-02-26T04:58:51;27.10;;;14.63;;
85342;SDS011;75760;31.390;34.904;2024-02-26T05:01:16;26.23;;;14.23;;
85342;SDS011;75760;31.390;34.904;2024-02-26T05:03:42;23.40;;;14.57;;
85342;SDS011;75760;31.390;34.904;2024-02-26T05:06:08;24.43;;;14.67;;
85342;SDS011;75760;31.390;34.904;2024-02-26T05:08:34;24.52;;;14.50;;
85342;SDS011;75760;31.390;34.904;2024-02-26T05:11:01;23.67;;;13.57;;
85342;SDS011;75760;31.390;34.904;2024-02-26T05:13:31;24.47;;;15.00;;
85342;SDS011;75760;31.390;34.904;2024-02-26T05:15:57;27.58;;;14.75;;
85342;SDS011;75760;31.390;34.904;2024-02-26T05:18:22;23.42;;;14.13;;
85342;SDS011;75760;31.390;34.904;2024-02-26T05:20:48;23.93;;;14.30;;
85342;SDS011;75760;31.390;34.904;2024-02-26T05:23:13;23.83;;;14.10;;
85342;SDS011;75760;31.390;34.904;2024-02-26T05:25:39;23.67;;;14.77;;
85342;SDS011;75760;31.390;34.904;2024-02-26T05:28:05;23.95;;;14.35;;
85342;SDS011;75760;31.390;34.904;2024-02-26T05:30:31;24.73;;;14.50;;
85342;SDS011;75760;31.390;34.904;2024-02-26T05:32:56;25.07;;;15.87;;
85342;SDS011;75760;31.390;34.904;2024-02-26T05:35:22;22.63;;;14.40;;
85342;SDS011;75760;31.390;34.904;2024-02-26T05:37:47;25.53;;;14.93;;
85342;SDS011;75760;31.390;34.904;2024-02-26T05:40:13;22.98;;;14.05;;
85342;SDS011;75760;31.390;34.904;2024-02-26T05:42:39;23.50;;;13.90;;
85342;SDS011;75760;31.390;34.904;2024-02-26T05:45:05;24.35;;;13.23;;
85342;SDS011;75760;31.390;34.904;2024-02-26T05:47:34;22.75;;;13.10;;
85342;SDS011;75760;31.390;34.904;2024-02-26T05:50:01;26.17;;;14.63;;
85342;SDS011;75760;31.390;34.904;2024-02-26T05:52:27;19.73;;;13.03;;
85342;SDS011;75760;31.390;34.904;2024-02-26T05:54:54;26.48;;;13.70;;
85342;SDS011;75760;31.390;34.904;2024-02-26T05:57:20;23.55;;;13.73;;
85342;SDS011;75760;31.390;34.904;2024-02-26T05:59:46;23.87;;;13.60;;
85342;SDS011;75760;31.390;34.904;2024-02-26T06:02:11;22.83;;;14.63;;
85342;SDS011;75760;31.390;34.904;2024-02-26T06:04:37;27.97;;;14.50;;
85342;SDS011;75760;31.390;34.904;2024-02-26T06:07:02;24.95;;;14.18;;
85342;SDS011;75760;31.390;34.904;2024-02-26T06:09:28;24.57;;;14.13;;
85342;SDS011;75760;31.390;34.904;2024-02-26T06:11:54;24.20;;;14.30;;
85342;SDS011;75760;31.390;34.904;2024-02-26T06:14:19;25.87;;;13.73;;
85342;SDS011;75760;31.390;34.904;2024-02-26T06:16:45;20.80;;;13.43;;
85342;SDS011;75760;31.390;34.904;2024-02-26T06:19:11;21.97;;;13.17;;
85342;SDS011;75760;31.390;34.904;2024-02-26T06:21:37;20.77;;;13.17;;
85342;SDS011;75760;31.390;34.904;2024-02-26T06:24:03;22.40;;;13.53;;
85342;SDS011;75760;31.390;34.904;2024-02-26T06:26:28;22.43;;;13.17;;
85342;SDS011;75760;31.390;34.904;2024-02-26T06:28:54;27.80;;;13.95;;
85342;SDS011;75760;31.390;34.904;2024-02-26T06:31:21;21.92;;;13.13;;
85342;SDS011;75760;31.390;34.904;2024-02-26T06:33:48;22.43;;;13.83;;
85342;SDS011;75760;31.390;34.904;2024-02-26T06:36:15;21.83;;;11.85;;
85342;SDS011;75760;31.390;34.904;2024-02-26T06:38:41;20.50;;;11.43;;
85342;SDS011;75760;31.390;34.904;2024-02-26T06:41:07;20.23;;;10.70;;
85342;SDS011;75760;31.390;34.904;2024-02-26T06:43:32;22.37;;;12.00;;
85342;SDS011;75760;31.390;34.904;2024-02-26T06:45:58;19.80;;;11.30;;
85342;SDS011;75760;31.390;34.904;2024-02-26T06:48:24;19.63;;;10.63;;
85342;SDS011;75760;31.390;34.904;2024-02-26T06:50:50;19.33;;;10.40;;
85342;SDS011;75760;31.390;34.904;2024-02-26T06:53:15;16.20;;;10.17;;
85342;SDS011;75760;31.390;34.904;2024-02-26T06:55:41;12.27;;;8.60;;
85342;SDS011;75760;31.390;34.904;2024-02-26T06:58:08;14.93;;;9.32;;
85342;SDS011;75760;31.390;34.904;2024-02-26T07:00:34;16.08;;;8.38;;
85342;SDS011;75760;31.390;34.904;2024-02-26T07:03:00;14.43;;;8.53;;
85342;SDS011;75760;31.390;34.904;2024-02-26T07:05:26;15.23;;;8.63;;
85342;SDS011;75760;31.390;34.904;2024-02-26T07:07:52;14.50;;;7.50;;
85342;SDS011;75760;31.390;34.904;2024-02-26T07:10:18;12.83;;;7.20;;
85342;SDS011;75760;31.390;34.904;2024-02-26T07:12:43;11.73;;;7.18;;
85342;SDS011;75760;31.390;34.904;2024-02-26T07:15:09;9.87;;;6.53;;
85342;SDS011;75760;31.390;34.904;2024-02-26T07:17:35;11.68;;;6.63;;
85342;SDS011;75760;31.390;34.904;2024-02-26T07:20:01;16.03;;;7.40;;
85342;SDS011;75760;31.390;34.904;2024-02-26T07:22:30;16.30;;;7.72;;
85342;SDS011;75760;31.390;34.904;2024-02-26T07:24:56;17.15;;;7.70;;
85342;SDS011;75760;31.390;34.904;2024-02-26T07:27:22;13.77;;;7.33;;
85342;SDS011;75760;31.390;34.904;2024-02-26T07:29:47;13.07;;;7.30;;
85342;SDS011;75760;31.390;34.904;2024-02-26T07:32:13;15.33;;;7.53;;
85342;SDS011;75760;31.390;34.904;2024-02-26T07:34:39;12.50;;;7.28;;
85342;SDS011;75760;31.390;34.904;2024-02-26T07:37:07;18.98;;;7.05;;
85342;SDS011;75760;31.390;34.904;2024-02-26T07:39:33;9.07;;;5.83;;
85342;SDS011;75760;31.390;34.904;2024-02-26T07:41:58;11.80;;;6.43;;
85342;SDS011;75760;31.390;34.904;2024-02-26T07:44:24;14.63;;;7.17;;
85342;SDS011;75760;31.390;34.904;2024-02-26T07:46:50;12.43;;;7.53;;
85342;SDS011;75760;31.390;34.904;2024-02-26T07:49:15;11.30;;;7.17;;
85342;SDS011;75760;31.390;34.904;2024-02-26T07:51:41;14.73;;;6.90;;
85342;SDS011;75760;31.390;34.904;2024-02-26T07:54:07;10.90;;;6.83;;
85342;SDS011;75760;31.390;34.904;2024-02-26T07:56:32;13.48;;;6.82;;
85342;SDS011;75760;31.390;34.904;2024-02-26T07:58:58;12.83;;;6.00;;
85342;SDS011;75760;31.390;34.904;2024-02-26T08:01:24;11.68;;;7.13;;
85342;SDS011;75760;31.390;34.904;2024-02-26T08:03:52;16.38;;;7.15;;
85342;SDS011;75760;31.390;34.904;2024-02-26T08:06:18;12.70;;;6.97;;
85342;SDS011;75760;31.390;34.904;2024-02-26T08:08:43;10.98;;;6.68;;
85342;SDS011;75760;31.390;34.904;2024-02-26T08:11:09;12.10;;;7.10;;
85342;SDS011;75760;31.390;34.904;2024-02-26T08:13:35;11.43;;;6.30;;
85342;SDS011;75760;31.390;34.904;2024-02-26T08:16:01;10.43;;;6.60;;
85342;SDS011;75760;31.390;34.904;2024-02-26T08:18:26;10.63;;;7.13;;
85342;SDS011;75760;31.390;34.904;2024-02-26T08:20:52;10.20;;;7.03;;
85342;SDS011;75760;31.390;34.904;2024-02-26T08:23:18;10.03;;;6.97;;
85342;SDS011;75760;31.390;34.904;2024-02-26T08:25:43;10.73;;;6.57;;
85342;SDS011;75760;31.390;34.904;2024-02-26T08:28:09;10.33;;;6.53;;
85342;SDS011;75760;31.390;34.904;2024-02-26T08:30:38;9.90;;;6.45;;
85342;SDS011;75760;31.390;34.904;2024-02-26T08:33:04;16.03;;;6.37;;
85342;SDS011;75760;31.390;34.904;2024-02-26T08:35:29;9.13;;;5.47;;
85342;SDS011;75760;31.390;34.904;2024-02-26T08:37:55;7.97;;;5.93;;
85342;SDS011;75760;31.390;34.904;2024-02-26T08:40:21;10.07;;;6.38;;
85342;SDS011;75760;31.390;34.904;2024-02-26T08:42:46;10.70;;;7.00;;
85342;SDS011;75760;31.390;34.904;2024-02-26T08:45:12;11.05;;;7.70;;
85342;SDS011;75760;31.390;34.904;2024-02-26T08:47:38;13.13;;;7.93;;
85342;SDS011;75760;31.390;34.904;2024-02-26T08:50:04;12.27;;;7.77;;
85342;SDS011;75760;31.390;34.904;2024-02-26T08:52:30;10.88;;;7.95;;
85342;SDS011;75760;31.390;34.904;2024-02-26T08:54:56;12.52;;;7.50;;
85342;SDS011;75760;31.390;34.904;2024-02-26T08:57:22;11.60;;;6.73;;
85342;SDS011;75760;31.390;34.904;2024-02-26T08:59:48;12.93;;;6.88;;
85342;SDS011;75760;31.390;34.904;2024-02-26T09:02:13;11.43;;;7.17;;
85342;SDS011;75760;31.390;34.904;2024-02-26T09:04:39;10.15;;;6.90;;
85342;SDS011;75760;31.390;34.904;2024-02-26T09:07:05;9.47;;;6.00;;
85342;SDS011;75760;31.390;34.904;2024-02-26T09:09:31;11.65;;;6.90;;
85342;SDS011;75760;31.390;34.904;2024-02-26T09:11:56;11.67;;;6.53;;
85342;SDS011;75760;31.390;34.904;2024-02-26T09:14:22;9.33;;;6.10;;
85342;SDS011;75760;31.390;34.904;2024-02-26T09:16:48;10.27;;;6.60;;
85342;SDS011;75760;31.390;34.904;2024-02-26T09:19:14;14.80;;;6.93;;
85342;SDS011;75760;31.390;34.904;2024-02-26T09:21:43;9.65;;;6.57;;
85342;SDS011;75760;31.390;34.904;2024-02-26T09:24:09;12.73;;;7.97;;
85342;SDS011;75760;31.390;34.904;2024-02-26T09:26:36;13.10;;;7.33;;
85342;SDS011;75760;31.390;34.904;2024-02-26T09:29:02;10.65;;;6.30;;
85342;SDS011;75760;31.390;34.904;2024-02-26T09:31:29;13.70;;;6.80;;
85342;SDS011;75760;31.390;34.904;2024-02-26T09:33:55;11.43;;;6.63;;
85342;SDS011;75760;31.390;34.904;2024-02-26T09:36:20;10.17;;;6.53;;
85342;SDS011;75760;31.390;34.904;2024-02-26T09:38:46;7.63;;;5.40;;
85342;SDS011;75760;31.390;34.904;2024-02-26T09:41:15;9.10;;;5.43;;
85342;SDS011;75760;31.390;34.904;2024-02-26T09:43:42;9.00;;;5.30;;
85342;SDS011;75760;31.390;34.904;2024-02-26T09:46:10;7.50;;;4.93;;
85342;SDS011;75760;31.390;34.904;2024-02-26T09:48:36;10.00;;;5.60;;
85342;SDS011;75760;31.390;34.904;2024-02-26T09:51:03;8.43;;;5.57;;
85342;SDS011;75760;31.390;34.904;2024-02-26T09:53:29;8.97;;;5.33;;
85342;SDS011;75760;31.390;34.904;2024-02-26T09:55:57;8.68;;;5.57;;
85342;SDS011;75760;31.390;34.904;2024-02-26T09:58:29;8.57;;;5.35;;
85342;SDS011;75760;31.390;34.904;2024-02-26T10:00:56;9.60;;;4.90;;
85342;SDS011;75760;31.390;34.904;2024-02-26T10:03:25;8.15;;;5.30;;
85342;SDS011;75760;31.390;34.904;2024-02-26T10:05:59;8.53;;;4.83;;
85342;SDS011;75760;31.390;34.904;2024-02-26T10:08:27;9.93;;;4.18;;
85342;SDS011;75760;31.390;34.904;2024-02-26T10:10:54;8.40;;;4.55;;
85342;SDS011;75760;31.390;34.904;2024-02-26T10:13:20;8.63;;;4.77;;
85342;SDS011;75760;31.390;34.904;2024-02-26T10:15:46;9.38;;;4.88;;
85342;SDS011;75760;31.390;34.904;2024-02-26T10:18:12;11.03;;;4.73;;
85342;SDS011;75760;31.390;34.904;2024-02-26T10:20:37;7.68;;;4.72;;
85342;SDS011;75760;31.390;34.904;2024-02-26T10:23:03;9.00;;;4.97;;
85342;SDS011;75760;31.390;34.904;2024-02-26T10:25:30;8.15;;;4.68;;
85342;SDS011;75760;31.390;34.904;2024-02-26T10:27:59;7.10;;;4.35;;
85342;SDS011;75760;31.390;34.904;2024-02-26T10:30:29;7.15;;;4.85;;
85342;SDS011;75760;31.390;34.904;2024-02-26T10:32:55;6.30;;;4.00;;
85342;SDS011;75760;31.390;34.904;2024-02-26T10:35:21;8.40;;;3.90;;
85342;SDS011;75760;31.390;34.904;2024-02-26T10:37:47;5.90;;;4.38;;
85342;SDS011;75760;31.390;34.904;2024-02-26T10:40:14;5.47;;;3.85;;
85342;SDS011;75760;31.390;34.904;2024-02-26T10:42:41;7.77;;;3.87;;
85342;SDS011;75760;31.390;34.904;2024-02-26T10:45:08;7.43;;;4.45;;
85342;SDS011;75760;31.390;34.904;2024-02-26T10:47:35;7.75;;;3.80;;
85342;SDS011;75760;31.390;34.904;2024-02-26T10:50:04;6.95;;;4.32;;
85342;SDS011;75760;31.390;34.904;2024-02-26T10:52:31;8.27;;;5.00;;
85342;SDS011;75760;31.390;34.904;2024-02-26T10:55:00;8.67;;;5.07;;
85342;SDS011;75760;31.390;34.904;2024-02-26T10:57:29;8.77;;;4.75;;
85342;SDS011;75760;31.390;34.904;2024-02-26T10:59:59;8.75;;;5.05;;
85342;SDS011;75760;31.390;34.904;2024-02-26T11:02:26;7.13;;;4.20;;
85342;SDS011;75760;31.390;34.904;2024-02-26T11:04:52;8.80;;;4.88;;
85342;SDS011;75760;31.390;34.904;2024-02-26T11:07:19;10.30;;;4.97;;
85342;SDS011;75760;31.390;34.904;2024-02-26T11:09:45;8.65;;;5.40;;
85342;SDS011;75760;31.390;34.904;2024-02-26T11:12:17;7.95;;;4.80;;
85342;SDS011;75760;31.390;34.904;2024-02-26T11:14:44;7.85;;;4.90;;
85342;SDS011;75760;31.390;34.904;2024-02-26T11:17:11;7.13;;;4.30;;
85342;SDS011;75760;31.390;34.904;2024-02-26T11:19:38;8.37;;;4.73;;
85342;SDS011;75760;31.390;34.904;2024-02-26T11:22:06;7.00;;;4.22;;
85342;SDS011;75760;31.390;34.904;2024-02-26T11:24:32;7.13;;;4.10;;
85342;SDS011;75760;31.390;34.904;2024-02-26T11:26:59;8.50;;;4.70;;
85342;SDS011;75760;31.390;34.904;2024-02-26T11:29:32;9.37;;;4.80;;
85342;SDS011;75760;31.390;34.904;2024-02-26T11:32:05;10.50;;;5.80;;
85342;SDS011;75760;31.390;34.904;2024-02-26T11:34:31;9.40;;;5.75;;
85342;SDS011;75760;31.390;34.904;2024-02-26T11:36:57;7.97;;;5.07;;
85342;SDS011;75760;31.390;34.904;2024-02-26T11:39:34;10.05;;;4.88;;
85342;SDS011;75760;31.390;34.904;2024-02-26T11:42:07;8.03;;;4.13;;
85342;SDS011;75760;31.390;34.904;2024-02-26T11:44:33;7.30;;;4.63;;
85342;SDS011;75760;31.390;34.904;2024-02-26T11:47:00;7.70;;;4.22;;
85342;SDS011;75760;31.390;34.904;2024-02-26T11:49:35;8.02;;;4.50;;
85342;SDS011;75760;31.390;34.904;2024-02-26T11:52:04;7.83;;;4.47;;
85342;SDS011;75760;31.390;34.904;2024-02-26T11:55:05;6.65;;;4.47;;
85342;SDS011;75760;31.390;34.904;2024-02-26T11:57:31;7.80;;;4.90;;
85342;SDS011;75760;31.390;34.904;2024-02-26T12:05:18;7.33;;;3.77;;
85342;SDS011;75760;31.390;34.904;2024-02-26T12:07:49;5.57;;;3.63;;
85342;SDS011;75760;31.390;34.904;2024-02-26T12:10:24;5.93;;;3.40;;
85342;SDS011;75760;31.390;34.904;2024-02-26T12:12:59;6.45;;;4.00;;
85342;SDS011;75760;31.390;34.904;2024-02-26T12:15:32;5.45;;;3.88;;
85342;SDS011;75760;31.390;34.904;2024-02-26T12:18:05;6.03;;;3.70;;
85342;SDS011;75760;31.390;34.904;2024-02-26T12:20:33;8.38;;;4.03;;
85342;SDS011;75760;31.390;34.904;2024-02-26T12:23:00;7.50;;;4.18;;
85342;SDS011;75760;31.390;34.904;2024-02-26T12:25:28;6.95;;;3.90;;
85342;SDS011;75760;31.390;34.904;2024-02-26T12:27:54;6.63;;;4.22;;
85342;SDS011;75760;31.390;34.904;2024-02-26T12:30:20;7.30;;;3.70;;
85342;SDS011;75760;31.390;34.904;2024-02-26T12:32:47;8.63;;;4.60;;
85342;SDS011;75760;31.390;34.904;2024-02-26T12:35:14;7.97;;;3.80;;
85342;SDS011;75760;31.390;34.904;2024-02-26T12:37:41;9.77;;;4.18;;
85342;SDS011;75760;31.390;34.904;2024-02-26T12:40:10;10.48;;;3.83;;
85342;SDS011;75760;31.390;34.904;2024-02-26T12:42:37;10.37;;;4.13;;
85342;SDS011;75760;31.390;34.904;2024-02-26T12:45:08;10.38;;;4.10;;
85342;SDS011;75760;31.390;34.904;2024-02-26T12:47:36;8.20;;;4.05;;
85342;SDS011;75760;31.390;34.904;2024-02-26T12:50:03;8.10;;;3.90;;
85342;SDS011;75760;31.390;34.904;2024-02-26T12:52:30;6.57;;;3.67;;
85342;SDS011;75760;31.390;34.904;2024-02-26T12:55:02;8.17;;;3.93;;
85342;SDS011;75760;31.390;34.904;2024-02-26T12:57:32;6.70;;;3.92;;
85342;SDS011;75760;31.390;34.904;2024-02-26T12:59:59;8.60;;;4.38;;
85342;SDS011;75760;31.390;34.904;2024-02-26T13:02:26;6.43;;;3.95;;
85342;SDS011;75760;31.390;34.904;2024-02-26T13:04:52;8.52;;;3.63;;
85342;SDS011;75760;31.390;34.904;2024-02-26T13:07:20;8.73;;;3.97;;
85342;SDS011;75760;31.390;34.904;2024-02-26T13:09:46;6.72;;;3.78;;
85342;SDS011;75760;31.390;34.904;2024-02-26T13:12:12;6.47;;;3.80;;
85342;SDS011;75760;31.390;34.904;2024-02-26T13:14:38;8.57;;;4.35;;
85342;SDS011;75760;31.390;34.904;2024-02-26T13:17:04;7.60;;;4.27;;
85342;SDS011;75760;31.390;34.904;2024-02-26T13:19:30;9.80;;;4.78;;
85342;SDS011;75760;31.390;34.904;2024-02-26T13:21:56;9.23;;;6.00;;
85342;SDS011;75760;31.390;34.904;2024-02-26T13:24:21;14.07;;;7.45;;
85342;SDS011;75760;31.390;34.904;2024-02-26T13:26:56;13.57;;;7.65;;
85342;SDS011;75760;31.390;34.904;2024-02-26T13:29:22;11.40;;;7.33;;
85342;SDS011;75760;31.390;34.904;2024-02-26T13:31:54;11.00;;;7.03;;
85342;SDS011;75760;31.390;34.904;2024-02-26T13:34:23;13.25;;;8.20;;
85342;SDS011;75760;31.390;34.904;2024-02-26T13:36:50;14.23;;;8.07;;
85342;SDS011;75760;31.390;34.904;2024-02-26T13:39:21;13.03;;;8.50;;
85342;SDS011;75760;31.390;34.904;2024-02-26T13:41:53;12.00;;;7.30;;
85342;SDS011;75760;31.390;34.904;2024-02-26T13:44:19;11.65;;;8.25;;
85342;SDS011;75760;31.390;34.904;2024-02-26T13:46:46;13.05;;;7.45;;
85342;SDS011;75760;31.390;34.904;2024-02-26T13:49:12;17.80;;;10.10;;
85342;SDS011;75760;31.390;34.904;2024-02-26T13:51:38;21.95;;;13.00;;
85342;SDS011;75760;31.390;34.904;2024-02-26T13:54:04;24.15;;;15.55;;
85342;SDS011;75760;31.390;34.904;2024-02-26T13:56:30;22.20;;;15.37;;
85342;SDS011;75760;31.390;34.904;2024-02-26T13:58:56;25.17;;;16.58;;
85342;SDS011;75760;31.390;34.904;2024-02-26T14:01:23;23.85;;;15.27;;
85342;SDS011;75760;31.390;34.904;2024-02-26T14:03:49;26.45;;;15.48;;
85342;SDS011;75760;31.390;34.904;2024-02-26T14:06:15;25.50;;;15.20;;
85342;SDS011;75760;31.390;34.904;2024-02-26T14:08:41;29.55;;;17.35;;
85342;SDS011;75760;31.390;34.904;2024-02-26T14:11:06;25.70;;;15.88;;
85342;SDS011;75760;31.390;34.904;2024-02-26T14:13:32;31.30;;;15.93;;
85342;SDS011;75760;31.390;34.904;2024-02-26T14:15:58;25.63;;;18.03;;
85342;SDS011;75760;31.390;34.904;2024-02-26T14:18:23;25.63;;;16.33;;
85342;SDS011;75760;31.390;34.904;2024-02-26T14:20:49;28.67;;;17.63;;